createdAt,value
2018-02-20T00:00:28.774Z,82.31
2018-02-20T00:03:32.826Z,82.72
2018-02-20T00:06:36.872Z,82.39
2018-02-20T00:09:40.168Z,82.40
2018-02-20T00:12:43.458Z,81.71
2018-02-20T00:15:46.741Z,81.43
2018-02-20T00:18:50.031Z,82.24
2018-02-20T00:21:54.905Z,83.28
2018-02-20T00:24:58.185Z,82.62
2018-02-20T00:28:01.533Z,82.47
2018-02-20T00:31:05.591Z,82.21
2018-02-20T00:34:09.006Z,81.76
2018-02-20T00:37:12.848Z,81.19
2018-02-20T00:40:16.133Z,82.68
2018-02-20T00:43:19.538Z,82.20
2018-02-20T00:46:22.873Z,81.88
2018-02-20T00:49:27.272Z,82.05
2018-02-20T00:52:30.553Z,82.13
2018-02-20T00:55:33.833Z,81.42
2018-02-20T00:58:37.128Z,83.16
2018-02-20T01:01:40.433Z,82.63
2018-02-20T01:04:43.718Z,81.88
2018-02-20T01:07:46.994Z,81.65
2018-02-20T01:10:51.068Z,81.75
2018-02-20T01:13:56.904Z,81.84
2018-02-20T01:17:00.176Z,81.71
2018-02-20T01:20:03.700Z,81.61
2018-02-20T01:23:06.991Z,81.83
2018-02-20T01:26:11.272Z,82.46
2018-02-20T01:29:15.231Z,82.22
2018-02-20T01:32:18.504Z,82.26
2018-02-20T01:35:22.593Z,82.59
2018-02-20T01:38:25.894Z,82.62
2018-02-20T01:41:29.302Z,82.83
2018-02-20T01:44:32.730Z,83.09
2018-02-20T01:47:36.921Z,83.08
2018-02-20T01:54:09.559Z,82.37
2018-02-20T01:57:13.648Z,82.37
2018-02-20T02:00:17.732Z,82.29
2018-02-20T02:03:21.824Z,82.21
2018-02-20T02:06:25.157Z,81.98
2018-02-20T02:09:28.892Z,81.61
2018-02-20T02:12:33.062Z,81.84
2018-02-20T02:15:36.349Z,82.02
2018-02-20T02:18:39.642Z,81.61
2018-02-20T02:21:43.965Z,81.59
2018-02-20T02:24:47.303Z,81.63
2018-02-20T02:27:50.587Z,82.02
2018-02-20T02:30:53.880Z,81.83
2018-02-20T02:33:57.158Z,81.59
2018-02-20T02:37:00.453Z,81.77
2018-02-20T02:40:04.042Z,81.56
2018-02-20T02:43:07.328Z,81.10
2018-02-20T02:46:10.621Z,80.87
2018-02-20T02:49:14.774Z,81.15
2018-02-20T02:52:18.054Z,80.95
2018-02-20T02:55:21.346Z,81.52
2018-02-20T02:58:24.873Z,81.54
2018-02-20T03:01:28.162Z,81.59
2018-02-20T03:04:32.388Z,81.80
2018-02-20T03:07:35.675Z,82.74
2018-02-20T03:10:38.972Z,82.57
2018-02-20T03:13:42.241Z,81.90
2018-02-20T03:16:46.291Z,81.06
2018-02-20T03:19:49.574Z,80.70
2018-02-20T03:22:52.879Z,80.70
2018-02-20T03:25:57.009Z,80.14
2018-02-20T03:29:00.290Z,80.20
2018-02-20T03:32:03.582Z,80.35
2018-02-20T03:35:06.906Z,80.22
2018-02-20T03:38:10.294Z,80.33
2018-02-20T03:41:13.901Z,80.12
2018-02-20T03:44:17.176Z,81.09
2018-02-20T03:47:21.722Z,80.77
2018-02-20T03:50:25.028Z,80.49
2018-02-20T03:53:28.318Z,81.07
2018-02-20T03:56:31.617Z,81.17
2018-02-20T03:59:35.665Z,80.97
2018-02-20T04:02:38.954Z,80.91
2018-02-20T04:05:42.232Z,80.32
2018-02-20T04:08:45.650Z,79.77
2018-02-20T04:11:48.927Z,80.54
2018-02-20T04:14:52.197Z,80.02
2018-02-20T04:17:55.515Z,79.91
2018-02-20T04:20:58.889Z,79.96
2018-02-20T04:24:02.169Z,79.65
2018-02-20T04:27:06.225Z,80.31
2018-02-20T04:30:09.585Z,80.30
2018-02-20T04:33:14.000Z,80.50
2018-02-20T04:36:17.282Z,79.86
2018-02-20T04:39:20.559Z,79.57
2018-02-20T04:42:23.917Z,80.24
2018-02-20T04:45:27.980Z,80.67
2018-02-20T04:48:31.280Z,80.51
2018-02-20T04:51:34.578Z,80.31
2018-02-20T04:54:37.888Z,80.85
2018-02-20T04:57:41.181Z,81.74
2018-02-20T05:00:44.494Z,81.33
2018-02-20T05:03:47.798Z,80.75
2018-02-20T05:06:51.141Z,81.30
2018-02-20T05:09:54.428Z,81.21
2018-02-20T05:13:06.169Z,81.15
2018-02-20T05:16:09.535Z,80.77
2018-02-20T05:19:12.824Z,80.91
2018-02-20T05:22:16.100Z,80.29
2018-02-20T05:25:20.230Z,79.95
2018-02-20T05:28:23.509Z,80.28
2018-02-20T05:31:27.549Z,80.65
2018-02-20T05:34:30.813Z,79.98
2018-02-20T05:37:34.129Z,79.78
2018-02-20T05:40:38.182Z,80.09
2018-02-20T05:43:41.454Z,80.34
2018-02-20T05:46:46.010Z,80.34
2018-02-20T05:49:49.281Z,79.64
2018-02-20T05:52:52.604Z,80.37
2018-02-20T05:55:56.869Z,80.67
2018-02-20T05:59:00.914Z,81.84
2018-02-20T06:02:04.196Z,82.44
2018-02-20T06:05:08.242Z,81.80
2018-02-20T06:08:11.541Z,80.86
2018-02-20T06:11:14.921Z,80.80
2018-02-20T06:14:18.217Z,81.69
2018-02-20T06:17:21.524Z,81.84
2018-02-20T06:20:24.796Z,81.38
2018-02-20T06:23:28.865Z,80.45
2018-02-20T06:26:32.149Z,80.38
2018-02-20T06:29:35.464Z,80.16
2018-02-20T06:32:38.726Z,81.15
2018-02-20T06:35:42.016Z,81.13
2018-02-20T06:38:45.323Z,81.60
2018-02-20T06:41:48.598Z,82.15
2018-02-20T06:44:52.693Z,81.43
2018-02-20T06:47:56.025Z,80.71
2018-02-20T06:50:59.323Z,80.27
2018-02-20T06:54:02.622Z,80.38
2018-02-20T06:57:06.661Z,79.74
2018-02-20T07:00:09.941Z,79.38
2018-02-20T07:03:13.211Z,79.12
2018-02-20T07:06:17.249Z,78.86
2018-02-20T07:09:20.531Z,79.33
2018-02-20T07:12:24.578Z,79.18
2018-02-20T07:15:28.629Z,79.33
2018-02-20T07:18:31.903Z,79.50
2018-02-20T07:21:35.179Z,79.90
2018-02-20T07:24:38.446Z,80.55
2018-02-20T07:27:42.585Z,80.70
2018-02-20T07:30:45.874Z,79.94
2018-02-20T07:33:49.988Z,79.47
2018-02-20T07:36:53.306Z,78.85
2018-02-20T07:39:56.684Z,78.84
2018-02-20T07:43:00.721Z,79.00
2018-02-20T07:46:03.991Z,78.78
2018-02-20T07:49:08.043Z,78.70
2018-02-20T07:52:11.354Z,78.24
2018-02-20T07:55:14.613Z,78.43
2018-02-20T07:58:17.928Z,77.26
2018-02-20T08:01:21.359Z,76.62
2018-02-20T08:04:24.714Z,76.79
2018-02-20T08:07:30.599Z,76.50
2018-02-20T08:10:34.793Z,75.69
2018-02-20T08:13:38.099Z,75.52
2018-02-20T08:16:41.387Z,75.14
2018-02-20T08:19:44.658Z,74.59
2018-02-20T08:22:48.707Z,74.97
2018-02-20T08:25:52.098Z,74.55
2018-02-20T08:28:55.391Z,74.28
2018-02-20T08:31:58.654Z,73.46
2018-02-20T08:35:01.925Z,73.65
2018-02-20T08:38:05.213Z,73.76
2018-02-20T08:41:08.502Z,72.88
2018-02-20T08:44:11.899Z,74.64
2018-02-20T08:47:15.200Z,74.07
2018-02-20T08:50:18.502Z,74.82
2018-02-20T08:53:22.941Z,73.56
2018-02-20T08:56:26.224Z,74.56
2018-02-20T08:59:29.525Z,74.28
2018-02-20T09:02:32.830Z,74.66
2018-02-20T09:05:36.150Z,73.82
2018-02-20T09:08:39.917Z,74.27
2018-02-20T09:11:43.213Z,73.56
2018-02-20T09:14:46.563Z,75.16
2018-02-20T09:17:49.843Z,75.22
2018-02-20T09:20:54.361Z,75.47
2018-02-20T09:23:57.621Z,74.00
2018-02-20T09:27:00.906Z,73.30
2018-02-20T09:30:05.602Z,72.94
2018-02-20T09:33:08.865Z,72.71
2018-02-20T09:36:12.140Z,73.02
2018-02-20T09:39:15.417Z,74.70
2018-02-20T09:42:19.469Z,73.30
2018-02-20T09:45:22.736Z,73.42
2018-02-20T09:48:26.773Z,72.52
2018-02-20T09:51:30.065Z,71.25
2018-02-20T09:54:33.338Z,70.28
2018-02-20T09:57:37.375Z,69.87
2018-02-20T10:00:41.418Z,69.34
2018-02-20T10:03:44.777Z,70.13
2018-02-20T10:06:48.052Z,70.92
2018-02-20T10:09:52.086Z,72.33
2018-02-20T10:12:55.361Z,70.68
2018-02-20T10:15:58.623Z,68.50
2018-02-20T10:19:02.667Z,69.86
2018-02-20T10:22:05.977Z,69.66
2018-02-20T10:25:09.326Z,70.06
2018-02-20T10:28:12.676Z,68.75
2018-02-20T10:31:15.986Z,68.46
2018-02-20T10:34:19.246Z,66.43
2018-02-20T10:37:22.526Z,67.11
2018-02-20T10:40:26.593Z,66.57
2018-02-20T10:43:29.886Z,66.18
2018-02-20T10:46:33.156Z,67.93
2018-02-20T10:49:36.426Z,66.86
2018-02-20T10:52:39.694Z,65.76
2018-02-20T10:55:43.019Z,65.49
2018-02-20T10:58:46.276Z,67.50
2018-02-20T11:01:49.544Z,66.95
2018-02-20T11:04:52.824Z,66.07
2018-02-20T11:07:56.337Z,65.58
2018-02-20T11:10:59.607Z,65.50
2018-02-20T11:14:02.926Z,65.09
2018-02-20T11:17:06.988Z,66.87
2018-02-20T11:20:10.250Z,66.50
2018-02-20T11:23:13.616Z,65.89
2018-02-20T11:26:17.749Z,66.91
2018-02-20T11:29:21.781Z,64.17
2018-02-20T11:32:25.047Z,64.13
2018-02-20T11:35:28.313Z,63.92
2018-02-20T11:38:31.641Z,63.25
2018-02-20T11:41:36.419Z,62.53
2018-02-20T11:44:39.773Z,64.31
2018-02-20T11:47:43.058Z,64.00
2018-02-20T11:50:46.464Z,63.96
2018-02-20T11:53:49.809Z,62.87
2018-02-20T11:56:53.101Z,61.16
2018-02-20T11:59:57.605Z,61.34
2018-02-20T12:03:01.642Z,62.39
2018-02-20T12:06:04.921Z,61.23
2018-02-20T12:09:08.958Z,60.33
2018-02-20T12:12:12.242Z,61.58
2018-02-20T12:15:16.329Z,62.08
2018-02-20T12:18:19.618Z,61.48
2018-02-20T12:21:22.922Z,60.82
2018-02-20T12:24:28.217Z,63.95
2018-02-20T12:27:31.502Z,64.04
2018-02-20T12:30:34.832Z,64.30
2018-02-20T12:33:38.143Z,63.54
2018-02-20T12:36:41.420Z,63.10
2018-02-20T12:39:44.823Z,62.22
2018-02-20T12:42:48.173Z,62.96
2018-02-20T12:45:51.401Z,63.51
2018-02-20T12:48:54.693Z,62.83
2018-02-20T12:51:59.968Z,61.78
2018-02-20T12:55:03.253Z,62.52
2018-02-20T12:58:06.537Z,64.17
2018-02-20T13:01:09.827Z,63.68
2018-02-20T13:04:13.163Z,63.59
2018-02-20T13:07:16.450Z,63.53
2018-02-20T13:10:19.725Z,63.43
2018-02-20T13:13:23.018Z,64.05
2018-02-20T13:16:26.293Z,64.73
2018-02-20T13:19:30.957Z,64.08
2018-02-20T13:22:34.373Z,64.53
2018-02-20T13:25:37.715Z,64.47
2018-02-20T13:28:41.854Z,65.67
2018-02-20T13:31:45.149Z,65.64
2018-02-20T13:34:49.406Z,65.71
2018-02-20T13:37:52.698Z,65.62
2018-02-20T13:40:56.900Z,65.94
2018-02-20T13:44:00.790Z,66.55
2018-02-20T13:47:04.844Z,67.16
2018-02-20T13:50:08.137Z,67.83
2018-02-20T13:53:11.521Z,67.63
2018-02-20T13:56:15.037Z,67.78
2018-02-20T13:59:19.071Z,67.38
2018-02-20T14:02:22.949Z,65.95
2018-02-20T14:05:26.230Z,66.13
2018-02-20T14:08:31.729Z,65.65
2018-02-20T14:11:35.005Z,66.50
2018-02-20T14:14:38.297Z,67.06
2018-02-20T14:17:41.589Z,67.24
2018-02-20T14:20:44.949Z,67.43
2018-02-20T14:23:48.304Z,66.72
2018-02-20T14:26:51.583Z,67.26
2018-02-20T14:29:54.853Z,67.38
2018-02-20T14:32:58.129Z,68.18
2018-02-20T14:36:03.039Z,67.73
2018-02-20T14:39:06.351Z,67.93
2018-02-20T14:42:09.837Z,66.60
2018-02-20T14:45:13.127Z,66.32
2018-02-20T14:48:16.405Z,66.15
2018-02-20T14:51:20.440Z,66.19
2018-02-20T14:54:23.828Z,66.45
2018-02-20T14:57:27.203Z,67.63
2018-02-20T15:00:30.571Z,66.48
2018-02-20T15:03:35.364Z,65.91
2018-02-20T15:06:38.694Z,66.49
2018-02-20T15:09:41.965Z,66.77
2018-02-20T15:12:45.525Z,67.67
2018-02-20T15:15:48.797Z,68.92
2018-02-20T15:18:52.069Z,69.08
2018-02-20T15:21:55.368Z,69.96
2018-02-20T15:24:58.648Z,70.81
2018-02-20T15:28:02.290Z,71.47
2018-02-20T15:31:05.557Z,71.96
2018-02-20T15:34:08.855Z,72.83
2018-02-20T15:37:12.182Z,72.99
2018-02-20T15:40:15.465Z,73.49
2018-02-20T15:43:18.925Z,74.14
2018-02-20T15:46:22.951Z,73.76
2018-02-20T15:49:27.268Z,74.36
2018-02-20T15:52:31.321Z,75.68
2018-02-20T15:55:34.915Z,75.75
2018-02-20T15:58:38.189Z,75.68
2018-02-20T16:01:41.496Z,75.40
2018-02-20T16:04:44.794Z,75.69
2018-02-20T16:07:48.096Z,75.95
2018-02-20T16:10:51.380Z,76.80
2018-02-20T16:17:29.566Z,77.34
2018-02-20T16:20:32.852Z,77.19
2018-02-20T16:23:36.125Z,77.38
2018-02-20T16:26:39.398Z,77.62
2018-02-20T16:29:43.442Z,77.33
2018-02-20T16:32:46.739Z,77.39
2018-02-20T16:35:50.030Z,76.99
2018-02-20T16:38:53.321Z,77.43
2018-02-20T16:41:57.355Z,77.95
2018-02-20T16:45:00.646Z,77.26
2018-02-20T16:48:03.947Z,77.44
2018-02-20T16:51:07.235Z,78.06
2018-02-20T16:54:10.510Z,77.41
2018-02-20T16:57:14.828Z,78.22
2018-02-20T17:00:18.121Z,78.53
2018-02-20T17:03:22.234Z,78.80
2018-02-20T17:06:26.336Z,78.70
2018-02-20T17:09:29.612Z,79.03
2018-02-20T17:12:32.887Z,78.64
2018-02-20T17:15:37.641Z,78.73
2018-02-20T17:18:40.920Z,78.58
2018-02-20T17:21:44.234Z,78.42
2018-02-20T17:24:47.534Z,78.19
2018-02-20T17:27:50.812Z,78.82
2018-02-20T17:30:54.214Z,79.39
2018-02-20T17:34:09.371Z,79.81
2018-02-20T17:37:13.386Z,79.65
2018-02-20T17:40:23.119Z,79.41
2018-02-20T17:43:27.258Z,79.72
2018-02-20T17:46:31.044Z,79.63
2018-02-20T17:49:34.451Z,79.15
2018-02-20T17:52:38.667Z,79.50
2018-02-20T17:55:42.747Z,79.35
2018-02-20T17:58:46.044Z,80.10
2018-02-20T18:01:49.347Z,80.58
2018-02-20T18:04:52.631Z,79.94
2018-02-20T18:07:55.925Z,80.02
2018-02-20T18:11:00.062Z,79.69
2018-02-20T18:14:03.372Z,79.95
2018-02-20T18:17:06.725Z,79.97
2018-02-20T18:20:10.014Z,80.32
2018-02-20T18:23:13.356Z,80.01
2018-02-20T18:26:16.705Z,80.28
2018-02-20T18:29:20.735Z,79.93
2018-02-20T18:32:24.046Z,79.74
2018-02-20T18:35:27.549Z,79.80
2018-02-20T18:38:30.907Z,79.94
2018-02-20T18:41:35.061Z,81.32
2018-02-20T18:44:38.389Z,80.80
2018-02-20T18:47:41.687Z,80.79
2018-02-20T18:50:44.963Z,80.80
2018-02-20T18:53:48.403Z,80.69
2018-02-20T18:56:51.702Z,81.56
2018-02-20T18:59:55.742Z,80.73
2018-02-20T19:02:59.036Z,80.04
2018-02-20T19:06:02.302Z,80.50
2018-02-20T19:09:05.633Z,80.76
2018-02-20T19:12:08.922Z,81.29
2018-02-20T19:15:12.990Z,80.85
2018-02-20T19:18:16.315Z,80.89
2018-02-20T19:21:19.641Z,80.90
2018-02-20T19:24:23.639Z,80.80
2018-02-20T19:27:27.817Z,80.64
2018-02-20T19:30:31.161Z,81.13
2018-02-20T19:33:34.481Z,81.15
2018-02-20T19:36:37.749Z,81.48
2018-02-20T19:39:41.950Z,81.28
2018-02-20T19:42:45.538Z,81.00
2018-02-20T19:45:48.828Z,81.36
2018-02-20T19:48:52.157Z,80.90
2018-02-20T19:51:55.729Z,80.66
2018-02-20T19:54:59.030Z,80.55
2018-02-20T19:58:02.362Z,80.11
2018-02-20T20:01:05.675Z,79.73
2018-02-20T20:04:10.104Z,80.34
2018-02-20T20:07:13.715Z,80.36
2018-02-20T20:10:17.246Z,81.07
2018-02-20T20:13:21.021Z,80.84
2018-02-20T20:16:24.537Z,80.63
2018-02-20T20:19:28.326Z,81.29
2018-02-20T20:22:32.547Z,81.41
2018-02-20T20:25:35.909Z,80.98
2018-02-20T20:28:39.259Z,79.89
2018-02-20T20:31:43.623Z,80.27
2018-02-20T20:34:47.256Z,80.50
2018-02-20T20:37:50.974Z,80.30
2018-02-20T20:40:54.545Z,80.48
2018-02-20T20:43:58.093Z,80.00
2018-02-20T20:47:02.247Z,80.83
2018-02-20T20:50:06.698Z,81.43
2018-02-20T20:53:10.231Z,81.49
2018-02-20T20:56:14.835Z,81.35
2018-02-20T20:59:19.448Z,80.82
2018-02-20T21:02:23.761Z,81.12
2018-02-20T21:05:27.063Z,80.61
2018-02-20T21:08:30.389Z,80.86
2018-02-20T21:11:34.489Z,81.01
2018-02-20T21:14:37.786Z,81.15
2018-02-20T21:17:41.066Z,81.27
2018-02-20T21:20:45.348Z,81.27
2018-02-20T21:23:49.398Z,81.62
2018-02-20T21:26:52.729Z,81.56
2018-02-20T21:29:55.992Z,81.73
2018-02-20T21:32:59.275Z,81.30
2018-02-20T21:36:02.566Z,80.92
2018-02-20T21:39:05.870Z,80.82
2018-02-20T21:42:09.197Z,82.27
2018-02-20T21:45:12.490Z,81.69
2018-02-20T21:48:16.534Z,81.66
2018-02-20T21:51:19.872Z,81.75
2018-02-20T21:54:23.909Z,81.17
2018-02-20T21:57:27.191Z,80.96
2018-02-20T22:00:30.482Z,80.77
2018-02-20T22:03:33.782Z,80.61
2018-02-20T22:06:37.065Z,80.41
2018-02-20T22:09:41.104Z,80.82
2018-02-20T22:12:44.398Z,80.79
2018-02-20T22:15:47.678Z,81.47
2018-02-20T22:18:51.726Z,81.49
2018-02-20T22:21:55.006Z,81.13
2018-02-20T22:24:58.314Z,80.91
2018-02-20T22:28:01.992Z,81.42
2018-02-20T22:31:06.046Z,81.24
2018-02-20T22:34:09.329Z,82.05
2018-02-20T22:37:12.609Z,82.41
2018-02-20T22:40:15.901Z,81.70
2018-02-20T22:43:19.941Z,81.25
2018-02-20T22:46:23.310Z,81.16
2018-02-20T22:49:27.784Z,80.58
2018-02-20T22:52:31.034Z,80.60
2018-02-20T22:55:35.132Z,81.89
2018-02-20T22:58:38.428Z,82.93
2018-02-20T23:01:41.714Z,82.64
2018-02-20T23:04:45.060Z,82.14
2018-02-20T23:07:50.380Z,81.74
2018-02-20T23:10:53.681Z,81.37
2018-02-20T23:13:58.428Z,80.69
2018-02-20T23:17:02.486Z,81.18
2018-02-20T23:20:06.608Z,81.04
2018-02-20T23:23:09.938Z,80.63
2018-02-20T23:26:13.278Z,80.78
2018-02-20T23:29:17.539Z,80.69
2018-02-20T23:32:21.778Z,81.79
2018-02-20T23:35:25.071Z,81.56
2018-02-20T23:38:28.366Z,81.30
2018-02-20T23:41:31.655Z,81.31
2018-02-20T23:44:35.643Z,81.28
2018-02-20T23:47:38.922Z,81.29
2018-02-20T23:50:42.194Z,81.51
2018-02-20T23:53:46.250Z,81.83
2018-02-20T23:56:49.734Z,81.88
2018-02-20T23:59:53.009Z,81.73
